UNBB

Barnaul Airport

Barnaul, Russian Federation
TAF UNBB 170800Z 1709/1809 18003G08MPS 3100 -SHSN BKN011CB TEMPO 1709/1809 15008MPS 0600 +SHSN DRSN BKN002 BKN011CB
Issued Valid From Valid To
Nov-17 @ 08:00 UTC
(56 minutes ago)
Nov-17 @ 09:00 UTC
(in 4 minutes)
Nov-18 @ 09:00 UTC
(in 24 hours)
Nov-17 @ 09:00 to Nov-18 @ 09:00
TAF UNBB 170800Z 1709/1809 18003G08MPS 3100 -SHSN BKN011CB
Wind Visibility Clouds Conditions
180° at 6 knots
 Gusting to 16 knots
3,106 meters
  • Broken at 1,100' AGL
  • Light Snow
Temporary Nov-17 @ 09:00 to Nov-18 @ 09:00
TEMPO 1709/1809 15008MPS 0600 +SHSN DRSN BKN002 BKN011CB
Wind Visibility Clouds Conditions
150° at 16 knots 595 meters
  • Broken at 200' AGL
  • Broken at 1,100' AGL
  • Heavy Snow
  • Low drifting
  • Snow
TAF UNBB 170800Z 1709/1809 18003G08MPS 3100 -SHSN BKN011CB TEMPO 1709/1809 15008MPS 0600 +SHSN DRSN BKN002 BKN011CB
Issued Nov-17 @ 08:00 UTC
(56 minutes ago)
Valid From Nov-17 @ 09:00 UTC
(in 4 minutes)
Valid To Nov-18 @ 09:00 UTC
(in 24 hours)
Nov-17 @ 09:00 - Nov-18 @ 09:00
Wind Visibility
180° at 6 knots
 Gusting to 16 knots
3,106 meters
Clouds
  • Broken at 1,100' AGL
Conditions
  • Light Snow
Temporary Nov-17 @ 09:00 - Nov-18 @ 09:00
Wind Visibility
150° at 16 knots 595 meters
Clouds
  • Broken at 200' AGL
  • Broken at 1,100' AGL
Conditions
  • Heavy Snow
  • Low drifting
  • Snow